Time;durP1;ratioP1;P1;durP2;ratioP2;P2;SDS_P1;SDS_P2;PMS_P1;PMS_P2;Temp;Humidity;BMP_temperature;BMP_pressure;BME280_temperature;BME280_humidity;BME280_pressure;Samples;Min_cycle;Max_cycle;Signal;HPM_P1;HPM_P2
2022/09/04 00:01:24;;;;;;;5.38;4.10;;;;;;;;;;6271859;28;20044;-82
2022/09/04 00:04:37;;;;;;;6.65;4.25;;;;;;;;;;6271762;28;20044;-79
2022/09/04 00:08:18;;;;;;;5.40;3.67;;;;;;;;;;6273689;28;20126;-81
2022/09/04 00:11:43;;;;;;;6.72;4.25;;;;;;;;;;6276207;28;20057;-80
2022/09/04 00:14:55;;;;;;;8.63;5.30;;;;;;;;;;6281310;28;20036;-80
2022/09/04 00:18:04;;;;;;;7.53;4.03;;;;;;;;;;6281360;28;20049;-81
2022/09/04 00:21:13;;;;;;;8.70;4.60;;;;;;;;;;6266338;28;20130;-79
2022/09/04 00:24:18;;;;;;;8.63;5.05;;;;;;;;;;6268286;28;20045;-82
2022/09/04 00:27:24;;;;;;;7.13;4.20;;;;;;;;;;6268140;28;20052;-78
2022/09/04 00:30:26;;;;;;;5.63;4.13;;;;;;;;;;6280829;28;20048;-81
2022/09/04 00:33:42;;;;;;;7.03;4.70;;;;;;;;;;6275113;28;20044;-81
2022/09/04 00:36:50;;;;;;;6.78;4.60;;;;;;;;;;6276360;28;20507;-82
2022/09/04 00:40:04;;;;;;;7.32;5.38;;;;;;;;;;6269532;28;20049;-81
2022/09/04 00:43:43;;;;;;;8.20;5.43;;;;;;;;;;6258719;28;20590;-81
2022/09/04 00:47:16;;;;;;;8.15;5.15;;;;;;;;;;6264469;28;20045;-80
2022/09/04 00:50:39;;;;;;;13.77;7.45;;;;;;;;;;6276268;28;20048;-82
2022/09/04 00:54:19;;;;;;;15.53;8.30;;;;;;;;;;6281683;28;20048;-80
2022/09/04 00:57:29;;;;;;;12.75;7.90;;;;;;;;;;6230735;28;20516;-80
2022/09/04 01:00:31;;;;;;;12.70;8.40;;;;;;;;;;6268928;28;20049;-82
2022/09/04 01:03:39;;;;;;;8.88;6.30;;;;;;;;;;6271999;28;21157;-81
2022/09/04 01:07:15;;;;;;;7.80;5.70;;;;;;;;;;6277000;28;20052;-82
2022/09/04 01:10:48;;;;;;;6.05;4.90;;;;;;;;;;6277087;28;20123;-80
2022/09/04 01:13:51;;;;;;;7.97;5.13;;;;;;;;;;6279978;28;20049;-80
2022/09/04 01:17:23;;;;;;;6.85;3.97;;;;;;;;;;6269408;28;20083;-79
2022/09/04 01:20:43;;;;;;;5.00;4.20;;;;;;;;;;6258264;28;20139;-81
2022/09/04 01:24:07;;;;;;;8.13;4.25;;;;;;;;;;6283478;28;20898;-80
2022/09/04 01:27:20;;;;;;;4.03;3.72;;;;;;;;;;6271677;28;20060;-81
2022/09/04 01:30:22;;;;;;;6.20;4.05;;;;;;;;;;6277000;28;20824;-79
2022/09/04 01:33:34;;;;;;;5.30;3.90;;;;;;;;;;6255860;28;20048;-82
2022/09/04 01:36:47;;;;;;;4.70;3.97;;;;;;;;;;6273057;28;20068;-81
2022/09/04 01:40:16;;;;;;;5.17;4.30;;;;;;;;;;6279633;28;20055;-82
2022/09/04 01:43:20;;;;;;;5.70;4.53;;;;;;;;;;6261724;28;20573;-79
2022/09/04 01:46:44;;;;;;;10.13;5.88;;;;;;;;;;6273031;28;20048;-79
2022/09/04 01:50:06;;;;;;;6.15;4.80;;;;;;;;;;6273825;28;20065;-80
2022/09/04 01:53:16;;;;;;;5.13;3.97;;;;;;;;;;6283010;28;20052;-81
2022/09/04 01:56:30;;;;;;;5.97;4.13;;;;;;;;;;6278436;28;20040;-80
2022/09/04 02:00:10;;;;;;;6.47;4.20;;;;;;;;;;6274973;28;20064;-79
2022/09/04 02:03:25;;;;;;;4.72;4.13;;;;;;;;;;6211187;28;20061;-80
2022/09/04 02:06:39;;;;;;;10.30;7.32;;;;;;;;;;6267864;28;20070;-80
2022/09/04 02:09:46;;;;;;;9.35;6.90;;;;;;;;;;6286722;28;20048;-78
2022/09/04 02:13:13;;;;;;;6.20;4.70;;;;;;;;;;6285406;28;20099;-83
2022/09/04 02:16:55;;;;;;;12.88;9.23;;;;;;;;;;6263575;28;20055;-80
2022/09/04 02:19:57;;;;;;;10.85;8.70;;;;;;;;;;6268914;28;20090;-81
2022/09/04 02:23:25;;;;;;;10.50;8.27;;;;;;;;;;6273010;28;20040;-81
2022/09/04 02:26:34;;;;;;;5.25;4.75;;;;;;;;;;6286515;28;20048;-80
2022/09/04 02:29:47;;;;;;;7.80;6.05;;;;;;;;;;6290885;28;20086;-79
2022/09/04 02:33:10;;;;;;;6.38;5.38;;;;;;;;;;6287877;28;20085;-81
2022/09/04 02:36:25;;;;;;;6.28;5.30;;;;;;;;;;6281207;28;20057;-79
2022/09/04 02:39:51;;;;;;;5.75;5.13;;;;;;;;;;6286150;28;20095;-78
2022/09/04 02:43:13;;;;;;;5.45;4.95;;;;;;;;;;6283163;28;20059;-80
2022/09/04 02:46:27;;;;;;;5.68;5.18;;;;;;;;;;6282497;28;20052;-80
2022/09/04 02:49:40;;;;;;;6.63;4.93;;;;;;;;;;6282457;28;20131;-80
2022/09/04 02:53:16;;;;;;;5.90;5.28;;;;;;;;;;6258594;28;20127;-79
2022/09/04 02:56:57;;;;;;;6.15;4.95;;;;;;;;;;6247708;28;20503;-81
2022/09/04 03:00:16;;;;;;;6.75;5.30;;;;;;;;;;6257755;28;20048;-82
2022/09/04 03:03:39;;;;;;;5.13;4.63;;;;;;;;;;6272910;28;20106;-80
2022/09/04 03:06:52;;;;;;;6.43;4.82;;;;;;;;;;6282147;28;20044;-79
2022/09/04 03:10:04;;;;;;;5.20;4.68;;;;;;;;;;6277695;28;20057;-81
2022/09/04 03:13:28;;;;;;;5.22;4.47;;;;;;;;;;6284989;28;20137;-81
2022/09/04 03:16:55;;;;;;;4.75;4.28;;;;;;;;;;6278573;28;20067;-82
2022/09/04 03:20:21;;;;;;;6.95;4.80;;;;;;;;;;6278917;28;20106;-82
2022/09/04 03:23:38;;;;;;;5.90;4.80;;;;;;;;;;6282739;28;20918;-78
2022/09/04 03:26:45;;;;;;;8.32;6.22;;;;;;;;;;6270923;28;20662;-78
2022/09/04 03:30:09;;;;;;;8.52;6.82;;;;;;;;;;6278895;28;20049;-78
2022/09/04 03:33:18;;;;;;;;;;;;;;;;;;6278571;28;20072;-77
2022/09/04 03:36:55;;;;;;;5.20;4.70;;;;;;;;;;6273394;28;19932;-77
2022/09/04 03:40:23;;;;;;;4.57;3.92;;;;;;;;;;6282968;28;20078;-77
2022/09/04 03:43:46;;;;;;;5.57;4.40;;;;;;;;;;6286751;28;20190;-78
2022/09/04 03:46:50;;;;;;;6.47;4.57;;;;;;;;;;6276648;28;20049;-79
2022/09/04 03:50:11;;;;;;;6.80;5.07;;;;;;;;;;6276697;28;21030;-76
2022/09/04 03:53:20;;;;;;;6.95;5.18;;;;;;;;;;6277121;28;20118;-77
2022/09/04 03:56:40;;;;;;;6.88;5.40;;;;;;;;;;6270389;28;20125;-79
2022/09/04 04:00:19;;;;;;;6.22;4.93;;;;;;;;;;6283596;28;20129;-80
2022/09/04 04:03:29;;;;;;;5.10;4.40;;;;;;;;;;6280437;28;20072;-76
2022/09/04 04:06:46;;;;;;;5.40;4.38;;;;;;;;;;6271507;28;20138;-78
2022/09/04 04:10:18;;;;;;;5.25;4.75;;;;;;;;;;6282300;28;20055;-79
2022/09/04 04:13:40;;;;;;;5.32;4.82;;;;;;;;;;6248584;28;20045;-78
2022/09/04 04:17:00;;;;;;;6.38;5.50;;;;;;;;;;6275572;28;20094;-78
2022/09/04 04:20:21;;;;;;;6.75;5.40;;;;;;;;;;6272117;28;20611;-78
2022/09/04 04:23:55;;;;;;;6.78;6.05;;;;;;;;;;6283528;28;20090;-79
2022/09/04 04:27:12;;;;;;;8.07;6.35;;;;;;;;;;6241093;28;20049;-79
2022/09/04 04:30:18;;;;;;;8.48;7.25;;;;;;;;;;6280059;28;20056;-79
2022/09/04 04:33:46;;;;;;;9.40;7.38;;;;;;;;;;6265312;28;20043;-77
2022/09/04 04:37:12;;;;;;;9.07;7.13;;;;;;;;;;6256900;28;20613;-79
2022/09/04 04:40:37;;;;;;;7.63;6.35;;;;;;;;;;6255406;28;20049;-78
2022/09/04 04:43:48;;;;;;;6.50;5.35;;;;;;;;;;6257858;28;20109;-76
2022/09/04 04:46:52;;;;;;;7.43;5.70;;;;;;;;;;6272960;28;20138;-77
2022/09/04 04:50:02;;;;;;;6.28;5.68;;;;;;;;;;6286067;28;20048;-76
2022/09/04 04:53:08;;;;;;;8.70;6.18;;;;;;;;;;6280920;28;20060;-79
2022/09/04 04:56:19;;;;;;;9.15;7.00;;;;;;;;;;6276131;28;20053;-78
2022/09/04 04:59:55;;;;;;;13.77;8.82;;;;;;;;;;6284358;28;20040;-76
2022/09/04 05:03:18;;;;;;;16.50;11.10;;;;;;;;;;6254717;28;20119;-78
2022/09/04 05:06:26;;;;;;;13.95;9.63;;;;;;;;;;6274229;28;20504;-79
2022/09/04 05:09:36;;;;;;;9.23;6.85;;;;;;;;;;6288099;28;20055;-79
2022/09/04 05:13:00;;;;;;;11.82;6.65;;;;;;;;;;6275748;28;20105;-79
2022/09/04 05:16:29;;;;;;;7.30;5.95;;;;;;;;;;6270353;28;20506;-78
2022/09/04 05:19:44;;;;;;;10.93;7.15;;;;;;;;;;6276166;28;20289;-79
2022/09/04 05:22:50;;;;;;;7.72;5.53;;;;;;;;;;6280288;28;20045;-78
2022/09/04 05:26:32;;;;;;;6.00;5.07;;;;;;;;;;6277268;28;20099;-76
2022/09/04 05:29:53;;;;;;;5.65;5.07;;;;;;;;;;6274610;28;20052;-78
2022/09/04 05:32:57;;;;;;;6.60;5.18;;;;;;;;;;6270130;28;20048;-76
2022/09/04 05:36:25;;;;;;;5.30;4.78;;;;;;;;;;6271926;28;20111;-78
2022/09/04 05:40:06;;;;;;;5.22;4.13;;;;;;;;;;6244479;28;20045;-76
2022/09/04 05:43:29;;;;;;;4.75;4.35;;;;;;;;;;6261566;28;20045;-77
2022/09/04 05:46:49;;;;;;;5.10;4.60;;;;;;;;;;6278585;28;20118;-77
2022/09/04 05:50:01;;;;;;;5.25;4.63;;;;;;;;;;6286467;28;20060;-77
2022/09/04 05:53:15;;;;;;;5.38;4.88;;;;;;;;;;6286125;28;20209;-77
2022/09/04 05:56:39;;;;;;;6.47;5.80;;;;;;;;;;6260648;28;20071;-77
2022/09/04 06:00:03;;;;;;;9.93;7.32;;;;;;;;;;6278231;28;20064;-77
2022/09/04 06:04:10;;;;;;;8.50;6.97;;;;;;;;;;6263238;28;20041;-78
2022/09/04 06:07:25;;;;;;;6.63;6.00;;;;;;;;;;6183067;28;20049;-79
2022/09/04 06:10:53;;;;;;;6.07;5.25;;;;;;;;;;6188124;28;20046;-78
2022/09/04 06:14:55;;;;;;;5.38;4.88;;;;;;;;;;6259605;28;20053;-76
2022/09/04 06:18:08;;;;;;;6.25;5.35;;;;;;;;;;6229613;28;20057;-78
2022/09/04 06:21:39;;;;;;;5.72;5.20;;;;;;;;;;6232607;28;20045;-78
2022/09/04 06:24:43;;;;;;;5.78;5.15;;;;;;;;;;6255008;28;20041;-79
2022/09/04 06:27:57;;;;;;;5.78;5.13;;;;;;;;;;6248503;28;20041;-78
2022/09/04 06:31:08;;;;;;;5.40;4.78;;;;;;;;;;6250105;28;20061;-77
2022/09/04 06:34:40;;;;;;;5.22;4.72;;;;;;;;;;6271098;28;20047;-79
2022/09/04 06:37:54;;;;;;;5.18;4.60;;;;;;;;;;6275883;28;20060;-78
2022/09/04 06:41:10;;;;;;;5.30;4.80;;;;;;;;;;6293223;28;20484;-79
2022/09/04 06:44:41;;;;;;;6.85;5.57;;;;;;;;;;6278292;28;20049;-77
2022/09/04 06:48:13;;;;;;;6.13;5.53;;;;;;;;;;6277513;28;20048;-77
2022/09/04 06:51:22;;;;;;;5.60;4.90;;;;;;;;;;6269294;28;20044;-79
2022/09/04 06:54:36;;;;;;;5.65;4.80;;;;;;;;;;6273179;28;20040;-77
2022/09/04 06:58:08;;;;;;;5.78;4.03;;;;;;;;;;6277860;28;20051;-78
2022/09/04 07:01:18;;;;;;;4.55;4.25;;;;;;;;;;6274679;28;20041;-77
2022/09/04 07:04:53;;;;;;;4.93;4.43;;;;;;;;;;6277532;28;20681;-77
2022/09/04 07:08:01;;;;;;;5.18;4.68;;;;;;;;;;6275731;28;20041;-76
2022/09/04 07:11:03;;;;;;;4.57;4.10;;;;;;;;;;6281089;28;20067;-78
2022/09/04 07:14:20;;;;;;;5.55;4.15;;;;;;;;;;6278240;28;20037;-77
2022/09/04 07:17:54;;;;;;;4.30;3.90;;;;;;;;;;6273865;28;20040;-79
2022/09/04 07:21:25;;;;;;;6.63;4.00;;;;;;;;;;6269414;28;20071;-79
2022/09/04 07:25:08;;;;;;;4.38;3.90;;;;;;;;;;6268893;28;20194;-78
2022/09/04 07:28:34;;;;;;;4.60;3.55;;;;;;;;;;6273585;28;20076;-78
2022/09/04 07:31:45;;;;;;;3.72;2.97;;;;;;;;;;6264425;28;20067;-76
2022/09/04 07:35:00;;;;;;;4.40;4.00;;;;;;;;;;6274825;28;20127;-78
2022/09/04 07:38:27;;;;;;;4.20;3.65;;;;;;;;;;6285422;28;20040;-75
2022/09/04 07:41:33;;;;;;;4.13;3.40;;;;;;;;;;6281322;28;20052;-76
2022/09/04 07:44:34;;;;;;;3.50;3.20;;;;;;;;;;6283979;28;20048;-77
2022/09/04 07:47:44;;;;;;;4.97;4.15;;;;;;;;;;6280096;28;20415;-78
2022/09/04 07:51:03;;;;;;;3.53;3.22;;;;;;;;;;6279539;28;20419;-76
2022/09/04 07:54:43;;;;;;;5.13;3.67;;;;;;;;;;6276366;28;20510;-78
2022/09/04 07:57:50;;;;;;;4.35;3.97;;;;;;;;;;6268369;28;20060;-76
2022/09/04 08:01:25;;;;;;;5.72;3.80;;;;;;;;;;6274907;28;20064;-77
2022/09/04 08:04:38;;;;;;;4.22;3.83;;;;;;;;;;6272649;28;20040;-76
2022/09/04 08:08:02;;;;;;;4.93;4.43;;;;;;;;;;6275343;28;20412;-78
2022/09/04 08:11:14;;;;;;;3.95;3.58;;;;;;;;;;6285095;28;20388;-77
2022/09/04 08:14:41;;;;;;;5.53;3.57;;;;;;;;;;6271215;28;20423;-75
2022/09/04 08:17:45;;;;;;;5.10;4.10;;;;;;;;;;6280435;28;20047;-78
2022/09/04 08:20:57;;;;;;;7.82;4.00;;;;;;;;;;6282669;28;20055;-79
2022/09/04 08:24:04;;;;;;;3.88;3.45;;;;;;;;;;6274931;28;20045;-77
2022/09/04 08:27:17;;;;;;;6.22;4.25;;;;;;;;;;6286511;28;20045;-79
2022/09/04 08:30:20;;;;;;;5.95;4.32;;;;;;;;;;6280841;28;20115;-75
2022/09/04 08:33:21;;;;;;;;;;;;;;;;;;6276276;28;20040;-79
2022/09/04 08:36:44;;;;;;;4.57;3.90;;;;;;;;;;6273651;28;19920;-77
2022/09/04 08:40:00;;;;;;;4.40;3.73;;;;;;;;;;6268840;28;20641;-78
2022/09/04 08:43:36;;;;;;;8.43;4.78;;;;;;;;;;6253041;28;20036;-76
2022/09/04 08:47:25;;;;;;;4.63;4.13;;;;;;;;;;6248311;28;20048;-78
2022/09/04 08:50:35;;;;;;;5.60;4.53;;;;;;;;;;6254367;28;20251;-76
2022/09/04 08:54:15;;;;;;;6.50;4.57;;;;;;;;;;6228796;28;20052;-80
2022/09/04 08:57:31;;;;;;;5.80;4.30;;;;;;;;;;6255602;28;20042;-79
2022/09/04 09:00:53;;;;;;;5.72;4.00;;;;;;;;;;6237019;28;20051;-79
2022/09/04 09:04:17;;;;;;;5.57;4.23;;;;;;;;;;6249839;28;20045;-77
2022/09/04 09:07:24;;;;;;;7.18;4.70;;;;;;;;;;6239803;28;20048;-75
2022/09/04 09:10:35;;;;;;;6.82;4.72;;;;;;;;;;6262153;28;20131;-77
2022/09/04 09:14:11;;;;;;;7.07;4.80;;;;;;;;;;6270245;28;20044;-77
2022/09/04 09:17:27;;;;;;;7.20;4.47;;;;;;;;;;6258598;28;20503;-78
2022/09/04 09:20:53;;;;;;;6.15;5.03;;;;;;;;;;6278569;28;20044;-78
2022/09/04 09:24:26;;;;;;;6.68;4.72;;;;;;;;;;6274873;28;20055;-77
2022/09/04 09:27:28;;;;;;;7.30;5.30;;;;;;;;;;6259561;28;20053;-77
2022/09/04 09:30:49;;;;;;;8.10;4.88;;;;;;;;;;6261031;28;20045;-75
2022/09/04 09:34:19;;;;;;;7.57;5.43;;;;;;;;;;6271317;28;20466;-76
2022/09/04 09:38:03;;;;;;;6.60;4.28;;;;;;;;;;6263084;28;20045;-76
2022/09/04 09:41:24;;;;;;;5.78;4.60;;;;;;;;;;6253478;28;20049;-76
2022/09/04 09:44:49;;;;;;;5.70;4.65;;;;;;;;;;6219426;28;20520;-76
2022/09/04 09:48:20;;;;;;;5.63;4.78;;;;;;;;;;6277957;28;20060;-76
2022/09/04 09:51:56;;;;;;;5.38;4.72;;;;;;;;;;6254771;28;20071;-77
2022/09/04 09:55:40;;;;;;;5.55;4.32;;;;;;;;;;6271843;28;20033;-78
2022/09/04 09:59:01;;;;;;;7.00;4.35;;;;;;;;;;6259206;28;20457;-76
2022/09/04 10:02:34;;;;;;;6.68;4.50;;;;;;;;;;6267377;28;20048;-75
2022/09/04 10:05:56;;;;;;;4.88;4.32;;;;;;;;;;6272301;28;20499;-76
2022/09/04 10:09:17;;;;;;;6.05;4.40;;;;;;;;;;6286617;28;20074;-76
2022/09/04 10:12:31;;;;;;;6.45;4.30;;;;;;;;;;6282365;28;20372;-76
2022/09/04 10:16:01;;;;;;;4.35;3.60;;;;;;;;;;6285352;28;20047;-76
2022/09/04 10:19:21;;;;;;;4.85;3.78;;;;;;;;;;6282357;28;20049;-77
2022/09/04 10:22:34;;;;;;;3.90;3.58;;;;;;;;;;6270827;28;20045;-75
2022/09/04 10:26:06;;;;;;;4.20;3.28;;;;;;;;;;6283394;28;20052;-76
2022/09/04 10:29:27;;;;;;;4.40;4.00;;;;;;;;;;6282804;28;20608;-76
2022/09/04 10:32:31;;;;;;;4.53;3.50;;;;;;;;;;6258040;28;20451;-75
2022/09/04 10:36:14;;;;;;;4.78;3.55;;;;;;;;;;6266727;28;20052;-75
2022/09/04 10:43:29;;;;;;;3.92;3.40;;;;;;;;;;6264207;28;20045;-75
2022/09/04 10:46:32;;;;;;;3.80;3.38;;;;;;;;;;6254725;28;20434;-75
2022/09/04 10:49:36;;;;;;;;;;;;;;;;;;6265287;28;20144;-75
2022/09/04 10:53:07;;;;;;;3.35;3.05;;;;;;;;;;6267544;28;19920;-74
2022/09/04 10:56:47;;;;;;;3.50;2.88;;;;;;;;;;6276843;28;20760;-74
2022/09/04 11:00:12;;;;;;;4.60;3.45;;;;;;;;;;6267032;28;20047;-74
2022/09/04 11:03:52;;;;;;;3.40;2.88;;;;;;;;;;6273662;28;20045;-75
2022/09/04 11:07:16;;;;;;;3.13;2.78;;;;;;;;;;6270225;28;20044;-75
2022/09/04 11:10:44;;;;;;;3.05;2.75;;;;;;;;;;6271656;28;20058;-76
2022/09/04 11:14:06;;;;;;;3.67;2.50;;;;;;;;;;6248755;28;20053;-75
2022/09/04 11:17:41;;;;;;;3.43;2.73;;;;;;;;;;6269786;28;20361;-75
2022/09/04 11:20:54;;;;;;;3.15;2.70;;;;;;;;;;6273095;28;20451;-75
2022/09/04 11:24:12;;;;;;;2.55;2.20;;;;;;;;;;6270181;28;20052;-74
2022/09/04 11:27:29;;;;;;;2.83;2.60;;;;;;;;;;6271500;28;20075;-75
2022/09/04 11:30:58;;;;;;;3.50;2.80;;;;;;;;;;6268162;28;20515;-75
2022/09/04 11:34:55;;;;;;;2.80;2.60;;;;;;;;;;6261611;28;20053;-76
2022/09/04 11:37:57;;;;;;;2.42;2.22;;;;;;;;;;6224650;28;20045;-75
2022/09/04 11:41:27;;;;;;;2.40;2.20;;;;;;;;;;6269984;28;20079;-76
2022/09/04 11:44:57;;;;;;;3.10;2.80;;;;;;;;;;6265167;28;20395;-76
2022/09/04 11:48:01;;;;;;;3.17;2.63;;;;;;;;;;6273120;28;20818;-77
2022/09/04 11:51:17;;;;;;;3.35;2.55;;;;;;;;;;6271686;28;20037;-76
2022/09/04 11:54:44;;;;;;;2.90;2.70;;;;;;;;;;6273872;28;20047;-75
2022/09/04 11:58:03;;;;;;;2.60;2.40;;;;;;;;;;6272428;28;20037;-75
2022/09/04 12:01:51;;;;;;;2.88;2.67;;;;;;;;;;6272344;28;20052;-75
2022/09/04 12:05:11;;;;;;;2.50;2.30;;;;;;;;;;6224018;28;20101;-75
2022/09/04 12:08:22;;;;;;;2.80;2.50;;;;;;;;;;6271009;28;20431;-75
2022/09/04 12:11:33;;;;;;;2.90;2.40;;;;;;;;;;6264197;28;20541;-75
2022/09/04 12:14:40;;;;;;;3.22;2.47;;;;;;;;;;6271319;28;20064;-75
2022/09/04 12:17:48;;;;;;;2.60;2.38;;;;;;;;;;6270527;28;20043;-75
2022/09/04 12:20:55;;;;;;;3.00;2.10;;;;;;;;;;6271152;28;20043;-75
2022/09/04 12:24:18;;;;;;;2.53;2.28;;;;;;;;;;6275176;28;20067;-75
2022/09/04 12:27:49;;;;;;;1.98;1.88;;;;;;;;;;6237549;28;20037;-76
2022/09/04 12:30:57;;;;;;;1.83;1.73;;;;;;;;;;6233500;28;20052;-77
2022/09/04 12:34:17;;;;;;;2.20;2.00;;;;;;;;;;6253399;28;20053;-77
2022/09/04 12:38:03;;;;;;;2.13;1.88;;;;;;;;;;6282125;28;20053;-77
2022/09/04 12:41:16;;;;;;;2.13;1.92;;;;;;;;;;6278841;28;20063;-76
2022/09/04 12:44:56;;;;;;;2.78;1.88;;;;;;;;;;6275108;28;20411;-77
2022/09/04 12:48:11;;;;;;;2.15;1.95;;;;;;;;;;6276814;28;20708;-77
2022/09/04 12:51:22;;;;;;;2.15;1.70;;;;;;;;;;6273138;28;20059;-76
2022/09/04 12:54:57;;;;;;;2.10;1.60;;;;;;;;;;6273871;28;20048;-77
2022/09/04 12:58:08;;;;;;;1.98;1.80;;;;;;;;;;6252406;28;20056;-77
2022/09/04 13:01:27;;;;;;;1.60;1.50;;;;;;;;;;6279621;28;20523;-77
2022/09/04 13:04:56;;;;;;;1.80;1.70;;;;;;;;;;6277062;28;20173;-76
2022/09/04 13:08:08;;;;;;;1.80;1.70;;;;;;;;;;6266775;28;20045;-76
2022/09/04 13:11:30;;;;;;;1.85;1.60;;;;;;;;;;6258163;28;20134;-76
2022/09/04 13:14:56;;;;;;;1.67;1.52;;;;;;;;;;6270464;28;20052;-76
2022/09/04 13:18:20;;;;;;;1.80;1.70;;;;;;;;;;6267857;28;20125;-77
2022/09/04 13:21:28;;;;;;;2.83;2.50;;;;;;;;;;6259240;28;20091;-76
2022/09/04 13:24:52;;;;;;;1.45;1.33;;;;;;;;;;6266301;28;20675;-77
2022/09/04 13:28:22;;;;;;;1.85;1.35;;;;;;;;;;6256818;28;20056;-77
2022/09/04 13:31:32;;;;;;;2.03;1.40;;;;;;;;;;6261441;28;20629;-76
2022/09/04 13:34:50;;;;;;;1.50;1.40;;;;;;;;;;6269369;28;20044;-77
2022/09/04 13:38:42;;;;;;;1.80;1.70;;;;;;;;;;6269116;28;20127;-77
2022/09/04 13:41:54;;;;;;;1.42;1.25;;;;;;;;;;6242669;28;20048;-75
2022/09/04 13:45:09;;;;;;;1.77;1.30;;;;;;;;;;6268214;28;20068;-76
2022/09/04 13:48:45;;;;;;;1.58;1.17;;;;;;;;;;6260230;28;20045;-77
2022/09/04 13:51:53;;;;;;;1.08;1.08;;;;;;;;;;6266957;28;20123;-76
2022/09/04 13:55:22;;;;;;;1.40;1.30;;;;;;;;;;6286465;28;20048;-76
2022/09/04 13:58:39;;;;;;;1.33;1.13;;;;;;;;;;6274285;28;20049;-75
2022/09/04 14:01:57;;;;;;;2.30;1.30;;;;;;;;;;6278126;28;20067;-76
2022/09/04 14:05:19;;;;;;;2.03;1.20;;;;;;;;;;6277749;28;20060;-77
2022/09/04 14:08:22;;;;;;;1.67;1.40;;;;;;;;;;6275280;28;20086;-77
2022/09/04 14:12:06;;;;;;;1.25;1.10;;;;;;;;;;6273287;28;20174;-77
2022/09/04 14:15:39;;;;;;;1.77;1.30;;;;;;;;;;6281988;28;20052;-77
2022/09/04 14:18:49;;;;;;;;;;;;;;;;;;6275441;28;20109;-79
2022/09/04 14:22:09;;;;;;;2.05;1.30;;;;;;;;;;6267909;28;19959;-76
2022/09/04 14:25:35;;;;;;;1.60;1.42;;;;;;;;;;6250848;28;20048;-77
2022/09/04 14:28:47;;;;;;;3.00;1.48;;;;;;;;;;6266306;28;20052;-77
2022/09/04 14:32:09;;;;;;;1.83;1.10;;;;;;;;;;6270114;28;20055;-75
2022/09/04 14:36:02;;;;;;;3.47;1.30;;;;;;;;;;6238738;28;20126;-76
2022/09/04 14:39:19;;;;;;;1.38;1.27;;;;;;;;;;6247810;28;20713;-77
2022/09/04 14:42:43;;;;;;;1.42;1.33;;;;;;;;;;6274936;28;20044;-77
2022/09/04 14:46:17;;;;;;;2.40;1.47;;;;;;;;;;6239789;28;20054;-76
2022/09/04 14:49:22;;;;;;;2.28;1.60;;;;;;;;;;6252782;28;20422;-77
2022/09/04 14:52:37;;;;;;;1.65;1.55;;;;;;;;;;6228240;28;20052;-75
2022/09/04 14:56:06;;;;;;;1.90;1.52;;;;;;;;;;6237209;28;20044;-77
2022/09/04 14:59:31;;;;;;;2.80;1.58;;;;;;;;;;6261095;28;20040;-77
2022/09/04 15:02:49;;;;;;;1.63;1.50;;;;;;;;;;6264183;28;20118;-78
2022/09/04 15:06:06;;;;;;;2.92;1.30;;;;;;;;;;6263586;28;20857;-77
2022/09/04 15:09:37;;;;;;;2.05;1.40;;;;;;;;;;6266199;28;20044;-78
2022/09/04 15:12:56;;;;;;;1.65;1.30;;;;;;;;;;6230129;28;20519;-77
2022/09/04 15:15:59;;;;;;;2.20;1.58;;;;;;;;;;6220233;28;20127;-77
2022/09/04 15:19:44;;;;;;;2.65;1.50;;;;;;;;;;6253727;28;20051;-76
2022/09/04 15:22:54;;;;;;;1.85;1.40;;;;;;;;;;6267006;28;20091;-78
2022/09/04 15:26:06;;;;;;;2.55;1.48;;;;;;;;;;6256279;28;20166;-77
2022/09/04 15:29:28;;;;;;;2.67;1.88;;;;;;;;;;6272125;28;20041;-78
2022/09/04 15:32:41;;;;;;;2.85;1.70;;;;;;;;;;6254135;28;20431;-79
2022/09/04 15:35:44;;;;;;;2.55;2.03;;;;;;;;;;6233115;28;20049;-77
2022/09/04 15:38:57;;;;;;;2.08;1.88;;;;;;;;;;6266799;28;20158;-76
2022/09/04 15:42:02;;;;;;;2.88;2.20;;;;;;;;;;6258825;28;20051;-78
2022/09/04 15:45:26;;;;;;;2.85;1.90;;;;;;;;;;6192254;28;20118;-76
2022/09/04 15:48:40;;;;;;;1.73;1.63;;;;;;;;;;6204666;28;20041;-78
2022/09/04 15:51:44;;;;;;;1.85;1.70;;;;;;;;;;6177447;28;21391;-77
2022/09/04 15:55:14;;;;;;;3.00;1.80;;;;;;;;;;6257852;28;20661;-76
2022/09/04 15:58:31;;;;;;;3.08;1.77;;;;;;;;;;6203851;28;20048;-78
2022/09/04 16:01:49;;;;;;;1.67;1.50;;;;;;;;;;6280861;28;20184;-78
2022/09/04 16:05:13;;;;;;;2.35;1.60;;;;;;;;;;6258220;28;20139;-78
2022/09/04 16:08:53;;;;;;;2.90;1.52;;;;;;;;;;6243164;28;20191;-78
2022/09/04 16:12:02;;;;;;;;;;;;;;;;;;6266444;28;20044;-78
2022/09/04 16:15:17;;;;;;;1.88;1.63;;;;;;;;;;6259726;28;20582;-79
2022/09/04 16:18:42;;;;;;;2.80;1.57;;;;;;;;;;6275709;28;20052;-78
2022/09/04 16:22:07;;;;;;;2.17;1.63;;;;;;;;;;6261353;28;20043;-79
2022/09/04 16:25:23;;;;;;;2.83;1.50;;;;;;;;;;6271777;28;20051;-79
2022/09/04 16:28:35;;;;;;;2.50;1.35;;;;;;;;;;6211658;28;20049;-78
2022/09/04 16:31:51;;;;;;;2.33;1.65;;;;;;;;;;6226213;28;20142;-80
2022/09/04 16:35:04;;;;;;;1.83;1.33;;;;;;;;;;6259092;28;20122;-78
2022/09/04 16:38:14;;;;;;;2.67;1.30;;;;;;;;;;6252755;28;20104;-79
2022/09/04 16:41:24;;;;;;;1.38;1.25;;;;;;;;;;6255569;28;20530;-76
2022/09/04 16:44:36;;;;;;;1.63;1.33;;;;;;;;;;6269935;28;20134;-78
2022/09/04 16:47:54;;;;;;;2.35;1.35;;;;;;;;;;6279534;28;20404;-78
2022/09/04 16:51:22;;;;;;;2.00;1.30;;;;;;;;;;6219376;28;20089;-78
2022/09/04 16:54:47;;;;;;;3.47;1.48;;;;;;;;;;6234547;28;20046;-79
2022/09/04 16:57:56;;;;;;;1.20;1.08;;;;;;;;;;6207565;28;20052;-78
2022/09/04 17:01:14;;;;;;;2.25;1.20;;;;;;;;;;6266328;28;20048;-80
2022/09/04 17:04:34;;;;;;;1.40;1.30;;;;;;;;;;6241026;28;20078;-79
2022/09/04 17:07:54;;;;;;;1.20;1.10;;;;;;;;;;6267183;28;20059;-78
2022/09/04 17:11:36;;;;;;;2.58;1.27;;;;;;;;;;6223212;28;20048;-78
2022/09/04 17:14:48;;;;;;;1.00;0.90;;;;;;;;;;6260983;28;20043;-78
2022/09/04 17:17:55;;;;;;;4.43;1.35;;;;;;;;;;6227117;28;20048;-78
2022/09/04 17:25:08;;;;;;;1.67;1.37;;;;;;;;;;6265002;28;20111;-77
2022/09/04 17:28:37;;;;;;;1.52;1.08;;;;;;;;;;6250117;28;20111;-77
2022/09/04 17:32:15;;;;;;;1.73;1.10;;;;;;;;;;6265784;28;20044;-77
2022/09/04 17:35:49;;;;;;;1.80;1.10;;;;;;;;;;6255005;28;20052;-77
2022/09/04 17:39:38;;;;;;;1.00;0.90;;;;;;;;;;6222595;28;20075;-77
2022/09/04 17:43:26;;;;;;;1.20;1.10;;;;;;;;;;6268647;28;20531;-77
2022/09/04 17:46:35;;;;;;;1.17;1.05;;;;;;;;;;6236555;28;20125;-77
2022/09/04 17:49:51;;;;;;;1.73;1.20;;;;;;;;;;6201853;28;20047;-78
2022/09/04 17:53:12;;;;;;;3.10;1.33;;;;;;;;;;6249507;28;20075;-77
2022/09/04 17:56:43;;;;;;;3.08;1.80;;;;;;;;;;6224676;28;20048;-75
2022/09/04 18:00:05;;;;;;;2.80;1.50;;;;;;;;;;6240074;28;20117;-75
2022/09/04 18:03:46;;;;;;;2.72;1.67;;;;;;;;;;6254933;28;20084;-77
2022/09/04 18:07:18;;;;;;;5.00;2.35;;;;;;;;;;6230038;28;20432;-77
2022/09/04 18:10:57;;;;;;;2.17;1.60;;;;;;;;;;6274885;28;20048;-76
2022/09/04 18:14:37;;;;;;;3.15;1.90;;;;;;;;;;6294633;28;20044;-77
2022/09/04 18:17:55;;;;;;;3.20;1.83;;;;;;;;;;6270551;28;20123;-76
2022/09/04 18:21:19;;;;;;;2.00;1.80;;;;;;;;;;6272563;28;20049;-76
2022/09/04 18:24:32;;;;;;;5.20;2.20;;;;;;;;;;6291002;28;20060;-79
2022/09/04 18:27:37;;;;;;;3.33;1.80;;;;;;;;;;6282380;28;20045;-76
2022/09/04 18:30:56;;;;;;;3.28;1.73;;;;;;;;;;6275927;28;20132;-75
2022/09/04 18:34:18;;;;;;;1.83;1.40;;;;;;;;;;6269942;28;20052;-79
2022/09/04 18:37:48;;;;;;;2.08;1.40;;;;;;;;;;6276895;28;20052;-77
2022/09/04 18:40:54;;;;;;;4.38;1.35;;;;;;;;;;6280182;28;20511;-79
2022/09/04 18:44:24;;;;;;;3.63;1.60;;;;;;;;;;6274807;28;20140;-77
2022/09/04 18:47:54;;;;;;;2.53;1.30;;;;;;;;;;6269296;28;20123;-80
2022/09/04 18:51:29;;;;;;;4.90;1.80;;;;;;;;;;6282627;28;20040;-76
2022/09/04 18:54:40;;;;;;;2.05;1.60;;;;;;;;;;6274209;28;20603;-77
2022/09/04 18:57:52;;;;;;;3.00;1.83;;;;;;;;;;6280133;28;20048;-75
2022/09/04 19:00:59;;;;;;;4.50;1.65;;;;;;;;;;6280251;28;20041;-76
2022/09/04 19:04:25;;;;;;;3.05;1.80;;;;;;;;;;6270689;28;20053;-77
2022/09/04 19:07:45;;;;;;;1.90;1.33;;;;;;;;;;6275244;28;20118;-77
2022/09/04 19:10:57;;;;;;;1.88;1.63;;;;;;;;;;6277287;28;20040;-77
2022/09/04 19:14:27;;;;;;;2.53;1.50;;;;;;;;;;6277875;28;20507;-76
2022/09/04 19:17:39;;;;;;;2.80;1.63;;;;;;;;;;6272983;28;20045;-74
2022/09/04 19:20:49;;;;;;;3.17;1.70;;;;;;;;;;6278704;28;20048;-76
2022/09/04 19:24:02;;;;;;;1.90;1.70;;;;;;;;;;6272952;28;20044;-77
2022/09/04 19:27:08;;;;;;;3.33;1.70;;;;;;;;;;6272371;28;20040;-78
2022/09/04 19:30:47;;;;;;;2.25;1.75;;;;;;;;;;6275678;28;20049;-79
2022/09/04 19:34:03;;;;;;;3.80;2.00;;;;;;;;;;6270353;28;20053;-78
2022/09/04 19:37:11;;;;;;;1.52;1.40;;;;;;;;;;6275915;28;20040;-75
2022/09/04 19:40:43;;;;;;;3.80;1.88;;;;;;;;;;6267812;28;20049;-77
2022/09/04 19:44:21;;;;;;;3.67;1.83;;;;;;;;;;6273119;28;20592;-76
2022/09/04 19:48:19;;;;;;;1.73;1.63;;;;;;;;;;6288109;28;20677;-79
2022/09/04 19:51:51;;;;;;;2.58;1.90;;;;;;;;;;6267581;28;20045;-76
2022/09/04 19:55:15;;;;;;;2.63;1.70;;;;;;;;;;6268333;28;20045;-78
2022/09/04 19:58:38;;;;;;;2.80;1.70;;;;;;;;;;6270128;28;20048;-76
2022/09/04 20:02:16;;;;;;;2.30;1.80;;;;;;;;;;6265889;28;20052;-76
2022/09/04 20:05:28;;;;;;;2.20;1.98;;;;;;;;;;6265822;28;20048;-75
2022/09/04 20:08:35;;;;;;;2.10;1.70;;;;;;;;;;6259958;28;20175;-77
2022/09/04 20:11:42;;;;;;;2.75;2.08;;;;;;;;;;6274894;28;20091;-79